ADDS METAR Data INFO
IDs: Format: Raw Decoded Include TAF

Data at: 0916 UTC 20 Jan 2018

KEYW 200853Z AUTO 03007KT 10SM FEW040 17/14 A3017 RMK AO2 SLP215 T01670139 58011